Time;durP1;ratioP1;P1;durP2;ratioP2;P2;SDS_P1;SDS_P2;PMS_P1;PMS_P2;Temp;Humidity;BMP_temperature;BMP_pressure;BME280_temperature;BME280_humidity;BME280_pressure;Samples;Min_cycle;Max_cycle;Signal;HPM_P1;HPM_P2
2021/04/09 00:02:03;;;;;;;49.60;18.42;;;;;;;;;;5063297;28;20051;-60
2021/04/09 00:04:28;;;;;;;56.13;16.92;;;;;;;;;;5060399;28;20020;-61
2021/04/09 00:06:54;;;;;;;48.25;16.73;;;;;;;;;;5063428;28;20111;-61
2021/04/09 00:09:25;;;;;;;51.45;18.55;;;;;;;;;;5065100;28;20034;-60
2021/04/09 00:11:51;;;;;;;52.20;17.33;;;;;;;;;;5066262;28;20032;-60
2021/04/09 00:14:18;;;;;;;50.63;16.90;;;;;;;;;;5063740;28;20031;-60
2021/04/09 00:16:44;;;;;;;49.60;18.38;;;;;;;;;;5060311;28;20031;-59
2021/04/09 00:19:14;;;;;;;59.17;18.83;;;;;;;;;;5058963;28;20047;-59
2021/04/09 00:21:42;;;;;;;51.17;18.00;;;;;;;;;;5077078;27;20039;-59
2021/04/09 00:24:08;;;;;;;47.28;18.00;;;;;;;;;;5062237;28;20036;-59
2021/04/09 00:26:36;;;;;;;57.55;19.73;;;;;;;;;;5062104;28;20032;-59
2021/04/09 00:29:04;;;;;;;52.17;19.23;;;;;;;;;;5046761;28;20042;-60
2021/04/09 00:31:30;;;;;;;53.30;20.50;;;;;;;;;;5062137;28;20409;-59
2021/04/09 00:33:55;;;;;;;60.80;20.08;;;;;;;;;;5062966;28;20143;-59
2021/04/09 00:36:23;;;;;;;65.20;20.40;;;;;;;;;;5060271;28;20047;-59
2021/04/09 00:38:49;;;;;;;51.88;20.02;;;;;;;;;;5063274;28;20020;-59
2021/04/09 00:41:20;;;;;;;55.10;21.10;;;;;;;;;;5061314;28;20057;-59
2021/04/09 00:43:45;;;;;;;50.20;18.80;;;;;;;;;;5062156;28;20051;-59
2021/04/09 00:46:13;;;;;;;51.55;17.98;;;;;;;;;;5063387;28;20056;-60
2021/04/09 00:48:41;;;;;;;54.50;19.50;;;;;;;;;;5061343;28;20455;-60
2021/04/09 00:51:07;;;;;;;53.15;20.55;;;;;;;;;;5041480;28;20032;-59
2021/04/09 00:53:33;;;;;;;56.80;19.25;;;;;;;;;;5060461;28;22074;-60
2021/04/09 00:55:59;;;;;;;50.20;18.70;;;;;;;;;;5061885;28;20040;-60
2021/04/09 00:58:25;;;;;;;54.05;17.75;;;;;;;;;;5060731;28;20023;-59
2021/04/09 01:00:50;;;;;;;57.25;20.77;;;;;;;;;;5060681;28;20561;-58
2021/04/09 01:03:21;;;;;;;51.45;19.77;;;;;;;;;;5045502;28;20036;-60
2021/04/09 01:05:48;;;;;;;56.50;21.20;;;;;;;;;;5051401;28;20051;-62
2021/04/09 01:08:18;;;;;;;50.80;18.25;;;;;;;;;;5061805;28;20104;-59
2021/04/09 01:10:44;;;;;;;50.08;19.10;;;;;;;;;;5061787;28;20846;-59
2021/04/09 01:13:10;;;;;;;51.72;18.73;;;;;;;;;;5060297;28;20186;-59
2021/04/09 01:15:36;;;;;;;41.92;18.25;;;;;;;;;;5062961;28;20045;-60
2021/04/09 01:18:07;;;;;;;49.47;16.88;;;;;;;;;;5061260;28;20020;-59
2021/04/09 01:20:39;;;;;;;45.90;17.45;;;;;;;;;;5060568;28;20743;-60
2021/04/09 01:23:23;;;;;;;46.88;17.27;;;;;;;;;;5066230;28;20028;-60
2021/04/09 01:26:08;;;;;;;45.50;17.23;;;;;;;;;;5061142;28;20036;-59
2021/04/09 01:28:52;;;;;;;45.47;17.00;;;;;;;;;;5061054;28;20044;-60
2021/04/09 01:31:17;;;;;;;47.45;18.77;;;;;;;;;;5061920;28;20039;-59
2021/04/09 01:33:43;;;;;;;44.67;17.98;;;;;;;;;;5066550;28;20024;-59
2021/04/09 01:36:14;;;;;;;40.38;18.88;;;;;;;;;;5062866;28;20119;-59
2021/04/09 01:38:44;;;;;;;36.65;16.02;;;;;;;;;;5060509;28;20724;-58
2021/04/09 01:41:15;;;;;;;48.00;18.08;;;;;;;;;;5060963;28;20170;-59
2021/04/09 01:43:43;;;;;;;37.05;17.45;;;;;;;;;;5061698;28;20504;-60
2021/04/09 01:46:09;;;;;;;43.90;17.73;;;;;;;;;;5060464;28;20043;-60
2021/04/09 01:48:40;;;;;;;41.95;17.85;;;;;;;;;;5063854;28;20056;-58
2021/04/09 01:51:14;;;;;;;54.55;20.13;;;;;;;;;;5061548;28;20124;-59
2021/04/09 01:53:41;;;;;;;42.72;16.75;;;;;;;;;;5062712;28;21068;-59
2021/04/09 01:56:15;;;;;;;39.00;17.38;;;;;;;;;;5061284;28;20031;-60
2021/04/09 01:58:41;;;;;;;51.10;18.98;;;;;;;;;;5046885;28;20159;-59
2021/04/09 02:01:11;;;;;;;39.55;17.33;;;;;;;;;;5060555;28;20111;-61
2021/04/09 02:03:37;;;;;;;41.97;17.80;;;;;;;;;;5064371;28;20599;-60
2021/04/09 02:06:07;;;;;;;50.72;18.35;;;;;;;;;;5060892;28;20068;-59
2021/04/09 02:08:34;;;;;;;41.65;16.50;;;;;;;;;;5060272;28;20032;-59
2021/04/09 02:11:00;;;;;;;36.67;16.75;;;;;;;;;;5058744;28;20636;-59
2021/04/09 02:13:27;;;;;;;39.03;17.48;;;;;;;;;;5058401;28;20036;-59
2021/04/09 02:15:56;;;;;;;41.92;17.17;;;;;;;;;;5064834;28;20103;-59
2021/04/09 02:18:25;;;;;;;36.15;16.08;;;;;;;;;;5056531;28;20366;-59
2021/04/09 02:20:52;;;;;;;30.98;14.95;;;;;;;;;;5060862;28;20032;-60
2021/04/09 02:23:21;;;;;;;35.22;16.45;;;;;;;;;;5057712;28;20044;-59
2021/04/09 02:25:49;;;;;;;37.65;16.65;;;;;;;;;;5046715;28;20048;-59
2021/04/09 02:28:14;;;;;;;38.67;16.20;;;;;;;;;;5060728;28;20059;-59
2021/04/09 02:30:40;;;;;;;41.90;16.08;;;;;;;;;;5059103;28;20400;-59
2021/04/09 02:33:08;;;;;;;41.15;16.27;;;;;;;;;;5059568;28;20024;-59
2021/04/09 02:35:34;;;;;;;41.15;17.60;;;;;;;;;;5060280;28;20085;-59
2021/04/09 02:38:02;;;;;;;36.35;16.38;;;;;;;;;;5038828;28;20020;-59
2021/04/09 02:40:31;;;;;;;42.85;15.95;;;;;;;;;;5058490;28;20676;-59
2021/04/09 02:43:01;;;;;;;40.00;16.70;;;;;;;;;;5056737;28;20028;-59
2021/04/09 02:45:32;;;;;;;42.05;17.02;;;;;;;;;;5049326;28;20472;-59
2021/04/09 02:48:00;;;;;;;40.97;17.02;;;;;;;;;;5059233;28;20143;-59
2021/04/09 02:50:32;;;;;;;30.85;16.15;;;;;;;;;;5058754;28;21053;-59
2021/04/09 02:53:12;;;;;;;50.38;18.52;;;;;;;;;;5058014;28;20078;-59
2021/04/09 02:55:41;;;;;;;37.28;16.10;;;;;;;;;;5062180;28;20125;-59
2021/04/09 02:58:07;;;;;;;51.42;19.42;;;;;;;;;;5058856;28;20039;-59
2021/04/09 03:00:37;;;;;;;40.47;18.27;;;;;;;;;;5056821;28;20035;-58
2021/04/09 03:03:07;;;;;;;44.95;18.52;;;;;;;;;;5073935;28;20108;-59
2021/04/09 03:05:35;;;;;;;44.35;19.25;;;;;;;;;;5058872;28;20116;-59
2021/04/09 03:08:06;;;;;;;42.33;16.67;;;;;;;;;;5025913;28;20041;-59
2021/04/09 03:10:38;;;;;;;45.00;19.33;;;;;;;;;;5060615;28;20039;-61
2021/04/09 03:13:09;;;;;;;39.42;16.90;;;;;;;;;;5058201;28;20115;-59
2021/04/09 03:15:46;;;;;;;40.35;17.65;;;;;;;;;;5059432;28;20077;-59
2021/04/09 03:18:12;;;;;;;37.50;17.80;;;;;;;;;;5057538;28;20070;-60
2021/04/09 03:20:38;;;;;;;34.17;15.27;;;;;;;;;;5057900;28;20036;-59
2021/04/09 03:23:08;;;;;;;42.40;16.77;;;;;;;;;;5057683;28;20047;-59
2021/04/09 03:25:38;;;;;;;42.22;17.98;;;;;;;;;;5064377;28;20047;-59
2021/04/09 03:28:04;;;;;;;38.60;18.02;;;;;;;;;;5063335;28;20032;-59
2021/04/09 03:30:32;;;;;;;42.97;16.75;;;;;;;;;;5052140;28;20086;-59
2021/04/09 03:33:00;;;;;;;46.58;17.08;;;;;;;;;;5062614;28;20112;-58
2021/04/09 03:35:28;;;;;;;46.90;18.35;;;;;;;;;;5047346;28;20058;-59
2021/04/09 03:37:56;;;;;;;40.17;17.00;;;;;;;;;;5061963;28;20023;-59
2021/04/09 03:40:22;;;;;;;40.95;17.77;;;;;;;;;;5060750;28;20048;-57
2021/04/09 03:42:50;;;;;;;46.85;17.85;;;;;;;;;;5060819;28;20225;-59
2021/04/09 03:45:18;;;;;;;52.22;19.20;;;;;;;;;;5029659;28;20121;-60
2021/04/09 03:47:45;;;;;;;54.75;18.17;;;;;;;;;;5063797;28;20031;-58
2021/04/09 03:50:11;;;;;;;44.42;18.02;;;;;;;;;;5062465;28;20033;-58
2021/04/09 03:52:37;;;;;;;51.83;19.17;;;;;;;;;;5053395;28;20051;-58
2021/04/09 03:55:03;;;;;;;49.63;19.40;;;;;;;;;;5062211;28;20055;-60
2021/04/09 03:57:29;;;;;;;53.50;19.63;;;;;;;;;;5045957;28;20024;-58
2021/04/09 03:59:59;;;;;;;63.58;22.15;;;;;;;;;;5061451;28;20035;-58
2021/04/09 04:02:32;;;;;;;55.25;19.98;;;;;;;;;;5057883;28;20204;-59
2021/04/09 04:04:57;;;;;;;53.17;21.80;;;;;;;;;;5069016;28;20040;-58
2021/04/09 04:07:22;;;;;;;50.92;19.30;;;;;;;;;;5060253;28;20113;-58
2021/04/09 04:09:50;;;;;;;61.63;20.55;;;;;;;;;;5075780;28;20159;-60
2021/04/09 04:12:20;;;;;;;58.80;21.63;;;;;;;;;;5068068;28;20044;-59
2021/04/09 04:14:46;;;;;;;48.88;21.38;;;;;;;;;;5046245;28;20036;-59
2021/04/09 04:17:11;;;;;;;68.60;22.98;;;;;;;;;;5034281;28;20101;-59
2021/04/09 04:19:44;;;;;;;56.13;23.17;;;;;;;;;;5061906;28;20050;-60
2021/04/09 04:22:09;;;;;;;51.00;21.60;;;;;;;;;;5046567;28;20024;-58
2021/04/09 04:24:35;;;;;;;59.38;21.67;;;;;;;;;;5062170;28;20025;-59
2021/04/09 04:27:01;;;;;;;75.18;23.35;;;;;;;;;;5060667;28;20032;-59
2021/04/09 04:29:29;;;;;;;64.53;20.80;;;;;;;;;;5064266;28;20029;-59
2021/04/09 04:31:56;;;;;;;64.53;21.00;;;;;;;;;;5051877;28;20045;-59
2021/04/09 04:34:25;;;;;;;63.40;22.67;;;;;;;;;;5046395;28;20052;-59
2021/04/09 04:36:52;;;;;;;52.83;19.83;;;;;;;;;;5059151;28;20027;-60
2021/04/09 04:39:20;;;;;;;72.05;22.20;;;;;;;;;;5059588;28;20067;-60
2021/04/09 04:41:48;;;;;;;58.30;22.35;;;;;;;;;;5067912;28;20147;-59
2021/04/09 04:44:16;;;;;;;61.38;20.63;;;;;;;;;;5031734;28;20040;-59
2021/04/09 04:46:41;;;;;;;55.85;20.60;;;;;;;;;;5050549;28;20068;-58
2021/04/09 04:49:07;;;;;;;63.15;21.38;;;;;;;;;;5061123;28;20044;-58
2021/04/09 04:51:37;;;;;;;61.05;21.90;;;;;;;;;;5061047;28;20039;-58
2021/04/09 04:54:03;;;;;;;63.08;22.02;;;;;;;;;;5048897;28;20025;-60
2021/04/09 04:56:28;;;;;;;59.50;22.10;;;;;;;;;;5049317;28;20908;-59
2021/04/09 04:58:56;;;;;;;61.85;21.40;;;;;;;;;;5066661;28;20032;-59
2021/04/09 05:01:27;;;;;;;56.38;21.55;;;;;;;;;;5063440;28;20045;-59
2021/04/09 05:03:54;;;;;;;50.40;20.15;;;;;;;;;;5050145;28;20036;-57
2021/04/09 05:06:22;;;;;;;58.80;19.23;;;;;;;;;;5049804;28;20040;-60
2021/04/09 05:08:48;;;;;;;59.63;19.08;;;;;;;;;;5060059;28;20063;-60
2021/04/09 05:11:13;;;;;;;57.83;19.23;;;;;;;;;;5067445;28;20036;-59
2021/04/09 05:13:38;;;;;;;44.92;18.45;;;;;;;;;;5057089;28;20164;-59
2021/04/09 05:16:06;;;;;;;51.67;19.60;;;;;;;;;;5032020;28;21177;-59
2021/04/09 05:18:34;;;;;;;59.70;19.40;;;;;;;;;;5062795;28;20040;-59
2021/04/09 05:21:02;;;;;;;64.75;21.75;;;;;;;;;;5060908;28;20036;-59
2021/04/09 05:23:30;;;;;;;48.83;18.13;;;;;;;;;;5057445;28;20089;-59
2021/04/09 05:26:00;;;;;;;46.05;17.45;;;;;;;;;;5059956;28;20044;-59
2021/04/09 05:28:29;;;;;;;45.67;19.05;;;;;;;;;;5062287;28;20032;-59
2021/04/09 05:30:57;;;;;;;47.50;16.83;;;;;;;;;;5063220;28;20082;-59
2021/04/09 05:33:24;;;;;;;48.55;18.58;;;;;;;;;;5062284;28;20499;-60
2021/04/09 05:35:52;;;;;;;42.72;17.63;;;;;;;;;;5048887;28;20514;-59
2021/04/09 05:38:18;;;;;;;48.75;17.42;;;;;;;;;;5067137;28;20024;-59
2021/04/09 05:40:46;;;;;;;50.20;16.50;;;;;;;;;;5058507;28;20206;-59
2021/04/09 05:43:14;;;;;;;39.40;16.85;;;;;;;;;;5067207;28;20047;-60
2021/04/09 05:45:39;;;;;;;37.85;16.00;;;;;;;;;;5062865;28;20052;-59
2021/04/09 05:48:06;;;;;;;31.55;14.93;;;;;;;;;;5047734;28;20109;-59
2021/04/09 05:50:33;;;;;;;36.50;14.60;;;;;;;;;;5062461;28;21897;-59
2021/04/09 05:52:59;;;;;;;32.03;13.57;;;;;;;;;;5059032;28;20020;-59
2021/04/09 05:55:27;;;;;;;26.23;11.93;;;;;;;;;;5059663;28;20075;-59
2021/04/09 05:57:55;;;;;;;29.80;12.75;;;;;;;;;;5059445;28;20036;-58
2021/04/09 06:00:23;;;;;;;25.52;12.15;;;;;;;;;;5047618;28;20353;-60
2021/04/09 06:02:54;;;;;;;21.08;12.20;;;;;;;;;;5058820;28;20039;-59
2021/04/09 06:05:22;;;;;;;20.70;11.30;;;;;;;;;;5053260;28;20039;-59
2021/04/09 06:07:58;;;;;;;31.45;11.82;;;;;;;;;;5056959;28;20490;-60
2021/04/09 06:10:26;;;;;;;26.35;11.45;;;;;;;;;;5056695;28;20028;-59
2021/04/09 06:12:54;;;;;;;20.48;11.32;;;;;;;;;;5053871;28;20475;-59
2021/04/09 06:15:21;;;;;;;23.63;10.65;;;;;;;;;;5052887;28;20028;-60
2021/04/09 06:17:46;;;;;;;29.20;11.05;;;;;;;;;;5058408;28;20482;-59
2021/04/09 06:20:15;;;;;;;22.48;10.60;;;;;;;;;;5050302;28;20056;-58
2021/04/09 06:22:42;;;;;;;22.63;10.90;;;;;;;;;;5063778;28;20475;-58
2021/04/09 06:25:08;;;;;;;22.63;11.50;;;;;;;;;;5054789;28;20032;-59
2021/04/09 06:27:37;;;;;;;27.40;10.48;;;;;;;;;;5049498;28;20070;-59
2021/04/09 06:30:03;;;;;;;24.70;10.38;;;;;;;;;;5053418;28;20039;-59
2021/04/09 06:32:34;;;;;;;20.67;9.95;;;;;;;;;;5056014;28;20038;-58
2021/04/09 06:35:02;;;;;;;22.60;10.32;;;;;;;;;;5058721;28;20051;-58
2021/04/09 06:37:27;;;;;;;30.75;9.57;;;;;;;;;;5040244;28;20035;-60
2021/04/09 06:39:53;;;;;;;21.75;10.55;;;;;;;;;;5054764;28;20084;-59
2021/04/09 06:42:18;;;;;;;19.15;10.02;;;;;;;;;;5054477;28;20047;-60
2021/04/09 06:44:45;;;;;;;21.20;10.50;;;;;;;;;;5055745;28;20036;-60
2021/04/09 06:47:16;;;;;;;23.95;9.95;;;;;;;;;;5054035;28;20028;-59
2021/04/09 06:49:42;;;;;;;22.92;9.35;;;;;;;;;;5054654;28;20027;-59
2021/04/09 06:52:16;;;;;;;22.80;10.02;;;;;;;;;;5049686;28;20151;-60
2021/04/09 06:54:45;;;;;;;19.27;8.83;;;;;;;;;;5052340;28;20039;-59
2021/04/09 06:57:11;;;;;;;23.77;9.63;;;;;;;;;;5054338;28;20020;-58
2021/04/09 06:59:41;;;;;;;17.90;9.25;;;;;;;;;;5054510;28;20048;-58
2021/04/09 07:02:11;;;;;;;22.88;9.52;;;;;;;;;;5062227;28;21112;-59
2021/04/09 07:04:36;;;;;;;19.23;8.85;;;;;;;;;;5062748;28;20060;-59
2021/04/09 07:07:07;;;;;;;15.07;8.00;;;;;;;;;;5049748;28;20163;-60
2021/04/09 07:09:33;;;;;;;17.60;8.07;;;;;;;;;;5061715;28;20032;-59
2021/04/09 07:12:03;;;;;;;25.98;8.07;;;;;;;;;;5048784;28;20121;-60
2021/04/09 07:14:47;;;;;;;21.15;7.97;;;;;;;;;;5059231;28;20029;-59
2021/04/09 07:17:20;;;;;;;15.63;7.00;;;;;;;;;;5057555;28;20037;-61
2021/04/09 07:19:46;;;;;;;19.20;6.60;;;;;;;;;;5075433;28;20040;-59
2021/04/09 07:22:15;;;;;;;16.25;6.53;;;;;;;;;;5059327;28;20134;-58
2021/04/09 07:24:40;;;;;;;13.70;6.80;;;;;;;;;;5059962;28;20140;-59
2021/04/09 07:27:19;;;;;;;12.18;7.03;;;;;;;;;;5062617;28;20035;-60
2021/04/09 07:29:48;;;;;;;25.60;7.65;;;;;;;;;;5061621;28;20035;-58
2021/04/09 07:32:15;;;;;;;12.88;6.85;;;;;;;;;;5059966;28;20163;-59
2021/04/09 07:35:04;;;;;;;12.65;6.32;;;;;;;;;;5049766;28;20064;-59
2021/04/09 07:37:49;;;;;;;20.00;6.43;;;;;;;;;;5058499;28;20095;-58
2021/04/09 07:40:18;;;;;;;13.13;6.72;;;;;;;;;;5060743;28;20101;-60
2021/04/09 07:42:44;;;;;;;12.15;6.07;;;;;;;;;;5060859;28;20024;-59
2021/04/09 07:45:11;;;;;;;14.50;5.93;;;;;;;;;;5061481;28;20035;-59
2021/04/09 07:47:40;;;;;;;16.90;6.38;;;;;;;;;;5060639;28;20032;-58
2021/04/09 07:50:09;;;;;;;12.13;5.82;;;;;;;;;;5060296;28;20119;-59
2021/04/09 07:52:41;;;;;;;22.52;6.47;;;;;;;;;;5058275;28;20035;-59
2021/04/09 07:55:14;;;;;;;14.80;5.97;;;;;;;;;;5055919;28;21942;-59
2021/04/09 07:57:44;;;;;;;13.48;5.03;;;;;;;;;;5056444;28;20020;-60
2021/04/09 08:00:19;;;;;;;13.75;5.13;;;;;;;;;;5057899;28;20502;-59
2021/04/09 08:02:45;;;;;;;;;;;;;;;;;;5060533;28;20111;-58
2021/04/09 08:05:12;;;;;;;18.58;5.78;;;;;;;;;;5058068;28;19916;-59
2021/04/09 08:07:41;;;;;;;16.27;5.78;;;;;;;;;;5064507;28;20024;-59
2021/04/09 08:10:11;;;;;;;15.10;5.53;;;;;;;;;;5058795;28;20021;-59
2021/04/09 08:12:37;;;;;;;18.17;4.82;;;;;;;;;;5045971;28;20019;-59
2021/04/09 08:15:21;;;;;;;12.38;5.82;;;;;;;;;;5068447;28;20540;-58
2021/04/09 08:18:00;;;;;;;18.75;5.60;;;;;;;;;;5061897;28;20042;-61
2021/04/09 08:20:28;;;;;;;19.58;5.18;;;;;;;;;;5062346;28;20085;-60
2021/04/09 08:23:00;;;;;;;20.05;5.40;;;;;;;;;;5065835;28;20498;-59
2021/04/09 08:25:29;;;;;;;9.18;4.38;;;;;;;;;;5062031;28;20044;-60
2021/04/09 08:27:55;;;;;;;10.43;4.57;;;;;;;;;;5061845;28;20032;-59
2021/04/09 08:30:21;;;;;;;20.33;4.40;;;;;;;;;;5064339;28;20036;-58
2021/04/09 08:32:46;;;;;;;9.88;3.83;;;;;;;;;;5061497;28;21334;-58
2021/04/09 08:35:12;;;;;;;10.88;3.75;;;;;;;;;;5044607;28;20047;-59
2021/04/09 08:37:38;;;;;;;11.10;3.25;;;;;;;;;;5052146;28;20040;-59
2021/04/09 08:40:04;;;;;;;8.18;3.05;;;;;;;;;;5046144;28;20032;-59
2021/04/09 08:42:32;;;;;;;16.02;4.38;;;;;;;;;;5064676;28;20020;-59
2021/04/09 08:45:03;;;;;;;19.52;3.67;;;;;;;;;;5063767;28;20506;-58
2021/04/09 08:47:31;;;;;;;17.70;3.17;;;;;;;;;;5062409;28;20031;-63
2021/04/09 08:50:05;;;;;;;11.52;3.30;;;;;;;;;;5063923;28;20514;-60
2021/04/09 08:52:39;;;;;;;10.38;3.38;;;;;;;;;;5062390;28;21233;-59
2021/04/09 08:55:06;;;;;;;8.23;3.65;;;;;;;;;;5047796;28;20024;-59
2021/04/09 08:57:33;;;;;;;8.32;2.80;;;;;;;;;;5065046;28;20966;-58
2021/04/09 09:00:03;;;;;;;10.63;3.63;;;;;;;;;;5050525;28;20021;-58
2021/04/09 09:02:40;;;;;;;13.10;3.70;;;;;;;;;;5062128;28;20024;-58
2021/04/09 09:05:12;;;;;;;20.73;4.05;;;;;;;;;;5067866;28;20058;-58
2021/04/09 09:07:43;;;;;;;13.55;3.97;;;;;;;;;;5063067;28;20024;-58
2021/04/09 09:10:24;;;;;;;9.27;3.20;;;;;;;;;;5059193;28;20044;-58
2021/04/09 09:13:16;;;;;;;9.38;3.08;;;;;;;;;;5059774;28;20110;-58
2021/04/09 09:15:47;;;;;;;10.68;3.85;;;;;;;;;;5047640;28;20036;-60
2021/04/09 09:18:19;;;;;;;13.02;3.22;;;;;;;;;;5062465;28;20914;-61
2021/04/09 09:21:03;;;;;;;10.10;3.53;;;;;;;;;;5061959;28;20058;-58
2021/04/09 09:23:49;;;;;;;14.13;3.15;;;;;;;;;;5062163;28;20064;-59
2021/04/09 09:26:33;;;;;;;10.25;3.20;;;;;;;;;;5066277;28;20145;-58
2021/04/09 09:29:07;;;;;;;12.50;3.38;;;;;;;;;;5065474;28;20142;-58
2021/04/09 09:31:53;;;;;;;11.48;3.00;;;;;;;;;;5058879;28;20471;-58
2021/04/09 09:34:21;;;;;;;6.00;2.63;;;;;;;;;;5046988;28;20040;-58
2021/04/09 09:37:02;;;;;;;14.23;3.45;;;;;;;;;;5058500;28;20119;-59
2021/04/09 09:39:34;;;;;;;13.57;3.67;;;;;;;;;;5060487;28;20036;-59
2021/04/09 09:41:59;;;;;;;8.68;3.38;;;;;;;;;;5060538;28;20054;-59
2021/04/09 09:44:32;;;;;;;7.38;3.25;;;;;;;;;;5060938;28;20039;-58
2021/04/09 09:47:03;;;;;;;11.57;3.47;;;;;;;;;;5061336;28;20056;-59
2021/04/09 09:49:32;;;;;;;14.15;3.30;;;;;;;;;;5059786;28;20033;-59
2021/04/09 09:51:57;;;;;;;11.75;2.40;;;;;;;;;;5060897;28;20031;-59
2021/04/09 09:54:26;;;;;;;12.65;2.95;;;;;;;;;;5061883;28;20047;-59
2021/04/09 09:56:53;;;;;;;9.20;2.95;;;;;;;;;;5058308;28;20103;-58
2021/04/09 09:59:20;;;;;;;14.30;3.35;;;;;;;;;;5060695;28;20032;-60
2021/04/09 10:01:49;;;;;;;15.18;2.95;;;;;;;;;;5060589;28;20091;-58
2021/04/09 10:04:19;;;;;;;6.50;2.97;;;;;;;;;;5061435;28;20555;-60
2021/04/09 10:06:57;;;;;;;9.77;3.13;;;;;;;;;;5066890;28;20055;-59
2021/04/09 10:09:27;;;;;;;11.77;3.00;;;;;;;;;;5059681;28;20031;-60
2021/04/09 10:11:53;;;;;;;7.63;3.17;;;;;;;;;;5060405;28;20112;-59
2021/04/09 10:14:19;;;;;;;7.57;2.67;;;;;;;;;;5058889;28;20090;-58
2021/04/09 10:16:47;;;;;;;10.10;3.38;;;;;;;;;;5062147;28;20034;-59
2021/04/09 10:19:15;;;;;;;10.45;2.72;;;;;;;;;;5060956;28;20115;-59
2021/04/09 10:21:44;;;;;;;8.80;3.03;;;;;;;;;;5059792;28;20044;-58
2021/04/09 10:24:15;;;;;;;13.20;3.15;;;;;;;;;;5058819;28;20042;-58
2021/04/09 10:26:44;;;;;;;8.55;2.83;;;;;;;;;;5058266;28;20237;-58
2021/04/09 10:29:28;;;;;;;10.23;2.50;;;;;;;;;;5056387;28;20036;-60
2021/04/09 10:31:54;;;;;;;8.00;2.88;;;;;;;;;;5057558;28;20032;-60
2021/04/09 10:34:20;;;;;;;8.13;2.78;;;;;;;;;;5058116;28;20020;-59
2021/04/09 10:36:48;;;;;;;10.75;2.83;;;;;;;;;;5058368;28;20163;-59
2021/04/09 10:39:15;;;;;;;9.65;3.08;;;;;;;;;;5045212;28;20055;-60
2021/04/09 10:41:51;;;;;;;10.30;3.45;;;;;;;;;;5056587;28;20178;-59
2021/04/09 10:44:20;;;;;;;8.50;2.75;;;;;;;;;;5075615;27;20032;-59
2021/04/09 10:46:47;;;;;;;10.15;3.50;;;;;;;;;;5059435;28;20049;-58
2021/04/09 10:49:16;;;;;;;12.88;3.00;;;;;;;;;;5065472;28;20036;-58
2021/04/09 10:51:45;;;;;;;7.82;2.80;;;;;;;;;;5059864;28;20032;-59
2021/04/09 10:54:17;;;;;;;9.65;2.65;;;;;;;;;;5057361;28;20039;-59
2021/04/09 10:56:49;;;;;;;10.02;2.70;;;;;;;;;;5042412;28;20020;-60
2021/04/09 10:59:14;;;;;;;11.13;3.13;;;;;;;;;;5057051;28;20039;-59
2021/04/09 11:01:43;;;;;;;5.00;2.50;;;;;;;;;;5056447;28;20071;-59
2021/04/09 11:04:09;;;;;;;7.38;2.42;;;;;;;;;;5056354;28;20806;-59
2021/04/09 11:06:34;;;;;;;9.77;2.83;;;;;;;;;;5063650;28;20059;-60
2021/04/09 11:09:12;;;;;;;14.75;2.70;;;;;;;;;;5062799;28;20209;-60
2021/04/09 11:11:40;;;;;;;12.25;2.50;;;;;;;;;;5040512;28;20813;-59
2021/04/09 11:14:14;;;;;;;12.88;2.60;;;;;;;;;;5059790;28;20102;-58
2021/04/09 11:16:53;;;;;;;13.98;3.10;;;;;;;;;;5057688;28;20025;-59
2021/04/09 11:19:26;;;;;;;7.32;2.65;;;;;;;;;;5058910;28;20091;-57
2021/04/09 11:21:55;;;;;;;21.30;2.95;;;;;;;;;;5048593;28;20066;-60
2021/04/09 11:24:22;;;;;;;11.30;3.35;;;;;;;;;;5060110;28;20072;-58
2021/04/09 11:26:48;;;;;;;11.93;3.50;;;;;;;;;;5058941;28;20040;-58
2021/04/09 11:29:20;;;;;;;17.15;2.92;;;;;;;;;;5057330;28;20101;-59
2021/04/09 11:31:46;;;;;;;11.70;2.70;;;;;;;;;;5053777;28;20041;-58
2021/04/09 11:34:18;;;;;;;6.18;2.28;;;;;;;;;;5055321;28;21127;-60
2021/04/09 11:36:49;;;;;;;9.93;3.22;;;;;;;;;;5060555;28;20055;-58
2021/04/09 11:39:16;;;;;;;8.80;2.63;;;;;;;;;;5054889;28;20048;-58
2021/04/09 11:42:01;;;;;;;11.10;3.03;;;;;;;;;;5060059;28;20059;-58
2021/04/09 11:44:36;;;;;;;12.27;3.00;;;;;;;;;;5067025;28;20170;-59
2021/04/09 11:47:12;;;;;;;15.73;3.00;;;;;;;;;;5061714;28;20036;-57
2021/04/09 11:49:42;;;;;;;11.45;3.28;;;;;;;;;;5045293;28;20036;-58
2021/04/09 11:52:08;;;;;;;7.53;3.30;;;;;;;;;;5063067;28;20078;-59
2021/04/09 11:54:37;;;;;;;14.35;3.05;;;;;;;;;;5062330;28;20051;-59
2021/04/09 11:57:03;;;;;;;5.72;2.53;;;;;;;;;;5060724;28;20032;-58
2021/04/09 11:59:34;;;;;;;6.80;3.05;;;;;;;;;;5062078;28;20047;-57
2021/04/09 12:02:14;;;;;;;9.35;3.17;;;;;;;;;;5063793;28;20052;-59
2021/04/09 12:04:42;;;;;;;9.43;2.75;;;;;;;;;;5062899;28;20071;-60
2021/04/09 12:07:16;;;;;;;19.88;3.00;;;;;;;;;;5063022;28;20032;-59
2021/04/09 12:09:43;;;;;;;10.27;3.38;;;;;;;;;;5061683;28;20085;-59
2021/04/09 12:12:13;;;;;;;10.50;3.47;;;;;;;;;;5060694;28;20029;-60
2021/04/09 12:14:43;;;;;;;10.52;3.63;;;;;;;;;;5062683;28;20039;-59
2021/04/09 12:17:13;;;;;;;17.38;3.90;;;;;;;;;;5075877;28;20139;-61
2021/04/09 12:19:39;;;;;;;9.88;3.40;;;;;;;;;;5066042;28;20441;-61
2021/04/09 12:22:05;;;;;;;12.18;3.95;;;;;;;;;;5068884;28;20043;-57
2021/04/09 12:24:35;;;;;;;10.27;3.90;;;;;;;;;;5062434;28;20094;-61
2021/04/09 12:27:04;;;;;;;15.25;3.72;;;;;;;;;;5066265;28;20747;-58
2021/04/09 12:29:29;;;;;;;6.53;3.40;;;;;;;;;;5062020;28;20031;-58
2021/04/09 12:31:56;;;;;;;14.43;3.65;;;;;;;;;;5059530;28;20958;-60
2021/04/09 12:34:21;;;;;;;17.80;3.53;;;;;;;;;;5061709;28;20081;-58
2021/04/09 12:36:50;;;;;;;15.73;3.75;;;;;;;;;;5050290;28;20147;-58
2021/04/09 12:39:17;;;;;;;7.40;1.92;;;;;;;;;;5062525;28;20060;-58
2021/04/09 12:41:47;;;;;;;12.10;1.60;;;;;;;;;;5060268;28;20793;-58
2021/04/09 12:44:15;;;;;;;19.02;2.33;;;;;;;;;;5062355;28;20031;-59
2021/04/09 12:46:47;;;;;;;13.27;2.22;;;;;;;;;;5066485;28;20044;-58
2021/04/09 12:49:13;;;;;;;10.95;1.80;;;;;;;;;;5062197;28;20036;-57
2021/04/09 12:51:41;;;;;;;8.50;1.35;;;;;;;;;;5047982;28;20046;-59
2021/04/09 12:54:07;;;;;;;14.95;1.58;;;;;;;;;;5061136;28;20036;-59
2021/04/09 12:56:38;;;;;;;15.77;2.50;;;;;;;;;;5063722;28;20034;-63
2021/04/09 12:59:11;;;;;;;14.57;2.08;;;;;;;;;;5060646;28;20118;-59
2021/04/09 13:01:42;;;;;;;13.63;1.45;;;;;;;;;;5067023;28;20075;-59
2021/04/09 13:04:10;;;;;;;5.60;1.40;;;;;;;;;;5043410;28;20123;-59
2021/04/09 13:06:38;;;;;;;14.07;1.67;;;;;;;;;;5059843;28;20039;-58
2021/04/09 13:09:06;;;;;;;8.93;1.85;;;;;;;;;;5057888;28;21966;-63
2021/04/09 13:11:34;;;;;;;7.97;1.63;;;;;;;;;;5062732;28;20087;-59
2021/04/09 13:13:59;;;;;;;10.48;1.30;;;;;;;;;;5050856;28;20050;-59
2021/04/09 13:16:28;;;;;;;8.48;1.63;;;;;;;;;;5059881;28;20024;-58
2021/04/09 13:18:55;;;;;;;10.32;1.85;;;;;;;;;;5062172;28;22032;-57
2021/04/09 13:21:21;;;;;;;6.03;1.30;;;;;;;;;;5060280;28;20056;-58
2021/04/09 13:23:52;;;;;;;8.65;1.60;;;;;;;;;;5049300;28;20858;-58
2021/04/09 13:26:19;;;;;;;9.35;1.50;;;;;;;;;;5059537;28;20047;-58
2021/04/09 13:28:44;;;;;;;6.65;1.08;;;;;;;;;;5057842;28;20043;-57
2021/04/09 13:31:15;;;;;;;9.23;1.70;;;;;;;;;;5076389;27;20040;-57
2021/04/09 13:33:40;;;;;;;7.32;1.98;;;;;;;;;;5054681;28;20020;-58
2021/04/09 13:36:12;;;;;;;19.65;1.90;;;;;;;;;;5061255;28;20073;-58
2021/04/09 13:38:40;;;;;;;24.55;1.90;;;;;;;;;;5060705;28;20063;-58
2021/04/09 13:41:08;;;;;;;6.20;1.83;;;;;;;;;;5062556;28;20055;-59
2021/04/09 13:43:36;;;;;;;9.85;1.40;;;;;;;;;;5059694;28;20112;-60
2021/04/09 13:46:04;;;;;;;12.80;1.52;;;;;;;;;;5045007;28;20544;-60
2021/04/09 13:48:33;;;;;;;6.85;1.48;;;;;;;;;;5059909;28;20036;-58
2021/04/09 13:50:59;;;;;;;16.25;2.55;;;;;;;;;;5058800;28;20043;-59
2021/04/09 13:53:29;;;;;;;10.98;1.70;;;;;;;;;;5049109;28;20881;-59
2021/04/09 13:55:57;;;;;;;7.63;1.88;;;;;;;;;;5057552;28;20942;-59
2021/04/09 13:58:22;;;;;;;8.98;1.30;;;;;;;;;;5064429;28;20024;-58
2021/04/09 14:00:50;;;;;;;15.68;1.75;;;;;;;;;;5031673;28;21768;-59
2021/04/09 14:03:15;;;;;;;9.00;1.67;;;;;;;;;;5047701;28;20115;-59
2021/04/09 14:05:43;;;;;;;6.68;1.55;;;;;;;;;;5029414;28;20042;-58
2021/04/09 14:08:11;;;;;;;12.35;1.75;;;;;;;;;;5036377;28;20040;-59
2021/04/09 14:10:37;;;;;;;8.77;1.58;;;;;;;;;;5060902;28;20131;-59
2021/04/09 14:13:09;;;;;;;14.77;2.40;;;;;;;;;;5048025;28;20067;-59
2021/04/09 14:15:35;;;;;;;8.82;1.50;;;;;;;;;;5060829;28;20024;-59
2021/04/09 14:18:03;;;;;;;8.35;1.77;;;;;;;;;;5061967;28;20113;-59
2021/04/09 14:20:33;;;;;;;15.93;1.83;;;;;;;;;;5061216;28;20035;-58
2021/04/09 14:23:01;;;;;;;14.88;1.60;;;;;;;;;;5061711;28;20028;-57
2021/04/09 14:25:29;;;;;;;13.88;1.88;;;;;;;;;;5061420;28;20037;-60
2021/04/09 14:27:57;;;;;;;13.55;1.80;;;;;;;;;;5065685;28;20027;-58
2021/04/09 14:30:23;;;;;;;7.72;1.55;;;;;;;;;;5058114;28;20032;-58
2021/04/09 14:32:52;;;;;;;9.93;1.50;;;;;;;;;;5064521;28;20573;-59
2021/04/09 14:35:18;;;;;;;10.43;1.55;;;;;;;;;;5059795;28;20020;-60
2021/04/09 14:37:47;;;;;;;9.77;1.88;;;;;;;;;;5061200;28;20533;-60